sensor_id;sensor_type;location;lat;lon;timestamp;pressure;altitude;pressure_sealevel;temperature;humidity
10014;BME280;45684;48.358;10.746;2023-03-19T00:01:10;95854.25;;;8.05;100.00
10014;BME280;45684;48.358;10.746;2023-03-19T00:03:39;95857.91;;;8.09;100.00
10014;BME280;45684;48.358;10.746;2023-03-19T00:06:08;95848.72;;;8.10;100.00
10014;BME280;45684;48.358;10.746;2023-03-19T00:08:40;95847.94;;;8.10;100.00
10014;BME280;45684;48.358;10.746;2023-03-19T00:11:09;95859.34;;;8.07;100.00
10014;BME280;45684;48.358;10.746;2023-03-19T00:13:39;95854.13;;;8.10;100.00
10014;BME280;45684;48.358;10.746;2023-03-19T00:16:07;95857.31;;;8.12;100.00
10014;BME280;45684;48.358;10.746;2023-03-19T00:18:35;95866.66;;;8.15;100.00
10014;BME280;45684;48.358;10.746;2023-03-19T00:21:04;95870.16;;;8.15;100.00
10014;BME280;45684;48.358;10.746;2023-03-19T00:23:32;95855.22;;;8.09;100.00
10014;BME280;45684;48.358;10.746;2023-03-19T00:26:00;95861.13;;;8.11;100.00
10014;BME280;45684;48.358;10.746;2023-03-19T00:28:28;95857.91;;;8.09;100.00
10014;BME280;45684;48.358;10.746;2023-03-19T00:30:56;95860.13;;;8.07;100.00
10014;BME280;45684;48.358;10.746;2023-03-19T00:33:24;95868.34;;;8.02;100.00
10014;BME280;45684;48.358;10.746;2023-03-19T00:35:52;95868.81;;;8.04;100.00
10014;BME280;45684;48.358;10.746;2023-03-19T00:38:22;95864.41;;;8.08;100.00
10014;BME280;45684;48.358;10.746;2023-03-19T00:40:50;95874.41;;;8.08;100.00
10014;BME280;45684;48.358;10.746;2023-03-19T00:43:18;95870.78;;;8.12;100.00
10014;BME280;45684;48.358;10.746;2023-03-19T00:45:48;95881.06;;;8.10;100.00
10014;BME280;45684;48.358;10.746;2023-03-19T00:48:17;95868.50;;;8.06;100.00
10014;BME280;45684;48.358;10.746;2023-03-19T00:50:45;95874.28;;;8.13;100.00
10014;BME280;45684;48.358;10.746;2023-03-19T00:53:12;95884.00;;;8.00;100.00
10014;BME280;45684;48.358;10.746;2023-03-19T00:55:42;95878.53;;;8.14;100.00
10014;BME280;45684;48.358;10.746;2023-03-19T00:58:10;95870.78;;;8.12;100.00
10014;BME280;45684;48.358;10.746;2023-03-19T01:00:37;95877.16;;;8.16;100.00
10014;BME280;45684;48.358;10.746;2023-03-19T01:03:05;95880.78;;;8.21;100.00
10014;BME280;45684;48.358;10.746;2023-03-19T01:05:34;95886.19;;;8.21;100.00
10014;BME280;45684;48.358;10.746;2023-03-19T01:08:02;95874.78;;;8.24;100.00
10014;BME280;45684;48.358;10.746;2023-03-19T01:10:32;95880.00;;;8.20;100.00
10014;BME280;45684;48.358;10.746;2023-03-19T01:13:03;95878.59;;;8.23;100.00
10014;BME280;45684;48.358;10.746;2023-03-19T01:15:34;95871.31;;;8.23;100.00
10014;BME280;45684;48.358;10.746;2023-03-19T01:18:02;95866.91;;;8.27;100.00
10014;BME280;45684;48.358;10.746;2023-03-19T01:20:30;95873.09;;;8.28;100.00
10014;BME280;45684;48.358;10.746;2023-03-19T01:22:58;95876.88;;;8.27;100.00
10014;BME280;45684;48.358;10.746;2023-03-19T01:25:27;95869.78;;;8.31;100.00
10014;BME280;45684;48.358;10.746;2023-03-19T01:28:04;95874.19;;;8.27;100.00
10014;BME280;45684;48.358;10.746;2023-03-19T01:30:35;95874.66;;;8.29;100.00
10014;BME280;45684;48.358;10.746;2023-03-19T01:33:35;95873.41;;;8.26;100.00
10014;BME280;45684;48.358;10.746;2023-03-19T01:36:16;95884.34;;;8.30;100.00
10014;BME280;45684;48.358;10.746;2023-03-19T01:39:10;95884.34;;;8.30;100.00
10014;BME280;45684;48.358;10.746;2023-03-19T01:41:38;95880.19;;;8.24;100.00
10014;BME280;45684;48.358;10.746;2023-03-19T01:44:31;95875.41;;;8.21;100.00
10014;BME280;45684;48.358;10.746;2023-03-19T01:47:23;95875.25;;;8.17;100.00
10014;BME280;45684;48.358;10.746;2023-03-19T01:50:29;95872.91;;;8.02;100.00
10014;BME280;45684;48.358;10.746;2023-03-19T01:53:16;95878.41;;;7.97;100.00
10014;BME280;45684;48.358;10.746;2023-03-19T01:56:03;95878.25;;;7.93;100.00
10014;BME280;45684;48.358;10.746;2023-03-19T01:58:39;95879.66;;;7.90;100.00
10014;BME280;45684;48.358;10.746;2023-03-19T02:01:20;95870.00;;;7.89;100.00
10014;BME280;45684;48.358;10.746;2023-03-19T02:03:53;95873.78;;;7.88;100.00
10014;BME280;45684;48.358;10.746;2023-03-19T02:06:28;95870.28;;;7.88;100.00
10014;BME280;45684;48.358;10.746;2023-03-19T02:08:57;95867.78;;;7.91;100.00
10014;BME280;45684;48.358;10.746;2023-03-19T02:11:25;95877.50;;;8.01;100.00
10014;BME280;45684;48.358;10.746;2023-03-19T02:13:53;95880.69;;;8.03;100.00
10014;BME280;45684;48.358;10.746;2023-03-19T02:16:23;95880.88;;;8.07;100.00
10014;BME280;45684;48.358;10.746;2023-03-19T02:18:51;95878.19;;;8.07;100.00
10014;BME280;45684;48.358;10.746;2023-03-19T02:21:21;95880.69;;;8.03;100.00
10014;BME280;45684;48.358;10.746;2023-03-19T02:23:54;95880.38;;;8.05;100.00
10014;BME280;45684;48.358;10.746;2023-03-19T02:26:41;95875.50;;;8.07;100.00
10014;BME280;45684;48.358;10.746;2023-03-19T02:29:11;95879.00;;;8.07;100.00
10014;BME280;45684;48.358;10.746;2023-03-19T02:31:39;95875.78;;;8.05;100.00
10014;BME280;45684;48.358;10.746;2023-03-19T02:34:33;95878.47;;;8.05;100.00
10014;BME280;45684;48.358;10.746;2023-03-19T02:37:06;95880.69;;;8.03;100.00
10014;BME280;45684;48.358;10.746;2023-03-19T02:39:40;95882.88;;;8.01;100.00
10014;BME280;45684;48.358;10.746;2023-03-19T02:42:12;95891.28;;;8.00;100.00
10014;BME280;45684;48.358;10.746;2023-03-19T02:44:41;95889.75;;;7.85;100.00
10014;BME280;45684;48.358;10.746;2023-03-19T02:47:09;95879.47;;;7.87;100.00
10014;BME280;45684;48.358;10.746;2023-03-19T02:49:37;95884.25;;;7.90;100.00
10014;BME280;45684;48.358;10.746;2023-03-19T02:52:05;95890.63;;;7.94;100.00
10014;BME280;45684;48.358;10.746;2023-03-19T02:54:33;95895.88;;;7.99;100.00
10014;BME280;45684;48.358;10.746;2023-03-19T02:57:00;95895.38;;;7.97;100.00
10014;BME280;45684;48.358;10.746;2023-03-19T02:59:30;95899.97;;;7.97;100.00
10014;BME280;45684;48.358;10.746;2023-03-19T03:01:59;95899.69;;;7.98;100.00
10014;BME280;45684;48.358;10.746;2023-03-19T03:04:27;95908.72;;;8.02;100.00
10014;BME280;45684;48.358;10.746;2023-03-19T03:06:55;95906.72;;;8.08;100.00
10014;BME280;45684;48.358;10.746;2023-03-19T03:09:23;95898.00;;;8.11;100.00
10014;BME280;45684;48.358;10.746;2023-03-19T03:11:51;95901.50;;;8.11;100.00
10014;BME280;45684;48.358;10.746;2023-03-19T03:14:19;95903.69;;;8.09;100.00
10014;BME280;45684;48.358;10.746;2023-03-19T03:16:49;95902.59;;;8.10;100.00
10014;BME280;45684;48.358;10.746;2023-03-19T03:19:16;95905.00;;;8.12;100.00
10014;BME280;45684;48.358;10.746;2023-03-19T03:21:44;95895.31;;;8.11;100.00
10014;BME280;45684;48.358;10.746;2023-03-19T03:24:12;95905.00;;;8.12;100.00
10014;BME280;45684;48.358;10.746;2023-03-19T03:26:40;95903.56;;;8.14;100.00
10014;BME280;45684;48.358;10.746;2023-03-19T03:29:09;95909.41;;;8.08;100.00
10014;BME280;45684;48.358;10.746;2023-03-19T03:31:37;95922.13;;;8.16;100.00
10014;BME280;45684;48.358;10.746;2023-03-19T03:34:07;95921.75;;;8.09;100.00
10014;BME280;45684;48.358;10.746;2023-03-19T03:36:34;95925.19;;;8.01;100.00
10014;BME280;45684;48.358;10.746;2023-03-19T03:39:03;95931.00;;;7.94;100.00
10014;BME280;45684;48.358;10.746;2023-03-19T03:41:31;95932.69;;;7.90;100.00
10014;BME280;45684;48.358;10.746;2023-03-19T03:44:00;95936.78;;;7.87;100.00
10014;BME280;45684;48.358;10.746;2023-03-19T03:46:31;95938.81;;;7.82;100.00
10014;BME280;45684;48.358;10.746;2023-03-19T03:48:59;95937.22;;;7.81;100.00
10014;BME280;45684;48.358;10.746;2023-03-19T03:51:29;95947.97;;;7.81;100.00
10014;BME280;45684;48.358;10.746;2023-03-19T03:53:56;95944.06;;;7.87;100.00
10014;BME280;45684;48.358;10.746;2023-03-19T03:56:24;95959.03;;;7.93;100.00
10014;BME280;45684;48.358;10.746;2023-03-19T03:58:52;95956.81;;;7.95;100.00
10014;BME280;45684;48.358;10.746;2023-03-19T04:01:20;95959.47;;;8.09;100.00
10014;BME280;45684;48.358;10.746;2023-03-19T04:03:53;95965.03;;;8.12;100.00
10014;BME280;45684;48.358;10.746;2023-03-19T04:06:22;95962.53;;;8.16;100.00
10014;BME280;45684;48.358;10.746;2023-03-19T04:09:07;95961.59;;;8.21;100.00
10014;BME280;45684;48.358;10.746;2023-03-19T04:11:35;95960.88;;;8.29;100.00
10014;BME280;45684;48.358;10.746;2023-03-19T04:14:03;95971.03;;;8.32;100.00
10014;BME280;45684;48.358;10.746;2023-03-19T04:16:36;95969.22;;;8.41;100.00
10014;BME280;45684;48.358;10.746;2023-03-19T04:19:04;95968.19;;;8.51;100.00
10014;BME280;45684;48.358;10.746;2023-03-19T04:21:33;95970.75;;;8.56;100.00
10014;BME280;45684;48.358;10.746;2023-03-19T04:24:01;95979.50;;;8.61;100.00
10014;BME280;45684;48.358;10.746;2023-03-19T04:26:30;95980.97;;;8.67;100.00
10014;BME280;45684;48.358;10.746;2023-03-19T04:28:58;95995.31;;;8.77;100.00
10014;BME280;45684;48.358;10.746;2023-03-19T04:31:26;95985.97;;;8.83;100.00
10014;BME280;45684;48.358;10.746;2023-03-19T04:33:54;95996.75;;;8.83;100.00
10014;BME280;45684;48.358;10.746;2023-03-19T04:36:22;96003.06;;;8.78;100.00
10014;BME280;45684;48.358;10.746;2023-03-19T04:38:50;96005.28;;;8.76;100.00
10014;BME280;45684;48.358;10.746;2023-03-19T04:41:19;96013.94;;;8.64;100.00
10014;BME280;45684;48.358;10.746;2023-03-19T04:44:19;96003.41;;;8.54;100.00
10014;BME280;45684;48.358;10.746;2023-03-19T04:46:48;96008.34;;;8.61;100.00
10014;BME280;45684;48.358;10.746;2023-03-19T04:49:18;96016.09;;;8.54;100.00
10014;BME280;45684;48.358;10.746;2023-03-19T04:51:48;96012.28;;;8.55;100.00
10014;BME280;45684;48.358;10.746;2023-03-19T04:54:15;96023.91;;;8.41;100.00
10014;BME280;45684;48.358;10.746;2023-03-19T04:56:44;96030.59;;;8.44;100.00
10014;BME280;45684;48.358;10.746;2023-03-19T04:59:11;96035.59;;;8.37;100.00
10014;BME280;45684;48.358;10.746;2023-03-19T05:01:41;96042.28;;;8.39;100.00
10014;BME280;45684;48.358;10.746;2023-03-19T05:04:10;96045.28;;;8.38;100.00
10014;BME280;45684;48.358;10.746;2023-03-19T05:06:40;96046.78;;;8.44;100.00
10014;BME280;45684;48.358;10.746;2023-03-19T05:09:08;96049.06;;;8.37;100.00
10014;BME280;45684;48.358;10.746;2023-03-19T05:11:36;96055.66;;;8.45;100.00
10014;BME280;45684;48.358;10.746;2023-03-19T05:14:08;96048.22;;;8.50;100.00
10014;BME280;45684;48.358;10.746;2023-03-19T05:16:52;96059.88;;;8.59;100.00
10014;BME280;45684;48.358;10.746;2023-03-19T05:19:20;96064.03;;;8.65;100.00
10014;BME280;45684;48.358;10.746;2023-03-19T05:21:48;96066.59;;;8.71;100.00
10014;BME280;45684;48.358;10.746;2023-03-19T05:24:21;96067.78;;;8.78;100.00
10014;BME280;45684;48.358;10.746;2023-03-19T05:26:49;96072.00;;;8.93;100.00
10014;BME280;45684;48.358;10.746;2023-03-19T05:29:35;96069.50;;;8.97;100.00
10014;BME280;45684;48.358;10.746;2023-03-19T05:32:19;96075.94;;;9.09;100.00
10014;BME280;45684;48.358;10.746;2023-03-19T05:34:48;96081.06;;;9.19;100.00
10014;BME280;45684;48.358;10.746;2023-03-19T05:37:16;96084.28;;;9.30;100.00
10014;BME280;45684;48.358;10.746;2023-03-19T05:39:51;96087.34;;;9.37;100.00
10014;BME280;45684;48.358;10.746;2023-03-19T05:42:19;96088.97;;;9.47;100.00
10014;BME280;45684;48.358;10.746;2023-03-19T05:44:47;96096.28;;;9.47;100.00
10014;BME280;45684;48.358;10.746;2023-03-19T05:47:26;96095.78;;;9.44;100.00
10014;BME280;45684;48.358;10.746;2023-03-19T05:50:00;96101.69;;;9.47;100.00
10014;BME280;45684;48.358;10.746;2023-03-19T05:52:32;96106.44;;;9.50;100.00
10014;BME280;45684;48.358;10.746;2023-03-19T05:55:00;96114.53;;;9.50;100.00
10014;BME280;45684;48.358;10.746;2023-03-19T05:57:42;96118.66;;;9.47;100.00
10014;BME280;45684;48.358;10.746;2023-03-19T06:00:19;96120.84;;;9.45;100.00
10014;BME280;45684;48.358;10.746;2023-03-19T06:02:48;96136.56;;;9.43;100.00
10014;BME280;45684;48.358;10.746;2023-03-19T06:05:42;96133.38;;;9.41;100.00
10014;BME280;45684;48.358;10.746;2023-03-19T06:08:31;96136.72;;;9.38;100.00
10014;BME280;45684;48.358;10.746;2023-03-19T06:11:25;96132.72;;;9.35;100.00
10014;BME280;45684;48.358;10.746;2023-03-19T06:14:13;96135.06;;;9.28;100.00
10014;BME280;45684;48.358;10.746;2023-03-19T06:16:57;96133.78;;;9.26;100.00
10014;BME280;45684;48.358;10.746;2023-03-19T06:19:27;96144.88;;;9.24;100.00
10014;BME280;45684;48.358;10.746;2023-03-19T06:21:55;96138.69;;;9.24;100.00
10014;BME280;45684;48.358;10.746;2023-03-19T06:24:23;96148.97;;;9.22;100.00
10014;BME280;45684;48.358;10.746;2023-03-19T06:26:51;96146.28;;;9.22;100.00
10014;BME280;45684;48.358;10.746;2023-03-19T06:29:18;96152.66;;;9.26;100.00
10014;BME280;45684;48.358;10.746;2023-03-19T06:31:52;96161.06;;;9.24;100.00
10014;BME280;45684;48.358;10.746;2023-03-19T06:34:39;96156.66;;;9.28;100.00
10014;BME280;45684;48.358;10.746;2023-03-19T06:37:07;96155.03;;;9.27;100.00
10014;BME280;45684;48.358;10.746;2023-03-19T06:39:35;96152.53;;;9.31;100.00
10014;BME280;45684;48.358;10.746;2023-03-19T06:42:04;96145.03;;;9.28;100.00
10014;BME280;45684;48.358;10.746;2023-03-19T06:44:32;96138.06;;;9.27;100.00
10014;BME280;45684;48.358;10.746;2023-03-19T06:47:00;96152.53;;;9.31;100.00
10014;BME280;45684;48.358;10.746;2023-03-19T06:49:29;96139.22;;;9.34;100.00
10014;BME280;45684;48.358;10.746;2023-03-19T06:51:58;96144.50;;;9.39;100.00
10014;BME280;45684;48.358;10.746;2023-03-19T06:54:26;96145.88;;;9.37;100.00
10014;BME280;45684;48.358;10.746;2023-03-19T06:56:54;96146.06;;;9.40;100.00
10014;BME280;45684;48.358;10.746;2023-03-19T06:59:22;96157.66;;;9.41;100.00
10014;BME280;45684;48.358;10.746;2023-03-19T07:01:52;96155.81;;;9.50;100.00
10014;BME280;45684;48.358;10.746;2023-03-19T07:04:21;96155.66;;;9.47;100.00
10014;BME280;45684;48.358;10.746;2023-03-19T07:06:48;96165.25;;;9.61;100.00
10014;BME280;45684;48.358;10.746;2023-03-19T07:09:18;96157.03;;;9.66;100.00
10014;BME280;45684;48.358;10.746;2023-03-19T07:11:46;96158.63;;;9.67;100.00
10014;BME280;45684;48.358;10.746;2023-03-19T07:14:18;96162.75;;;9.74;100.00
10014;BME280;45684;48.358;10.746;2023-03-19T07:16:46;96166.44;;;9.78;100.00
10014;BME280;45684;48.358;10.746;2023-03-19T07:19:14;96159.78;;;9.75;100.00
10014;BME280;45684;48.358;10.746;2023-03-19T07:21:42;96161.69;;;9.83;100.00
10014;BME280;45684;48.358;10.746;2023-03-19T07:24:10;96163.31;;;9.84;100.00
10014;BME280;45684;48.358;10.746;2023-03-19T07:26:40;96167.13;;;9.92;100.00
10014;BME280;45684;48.358;10.746;2023-03-19T07:29:09;96166.69;;;9.99;100.00
10014;BME280;45684;48.358;10.746;2023-03-19T07:31:37;96178.13;;;9.95;100.00
10014;BME280;45684;48.358;10.746;2023-03-19T07:34:05;96171.41;;;9.93;100.00
10014;BME280;45684;48.358;10.746;2023-03-19T07:36:33;96175.38;;;9.87;100.00
10014;BME280;45684;48.358;10.746;2023-03-19T07:39:01;96178.69;;;9.84;100.00
10014;BME280;45684;48.358;10.746;2023-03-19T07:41:29;96184.59;;;9.86;100.00
10014;BME280;45684;48.358;10.746;2023-03-19T07:44:03;96182.50;;;9.83;100.00
10014;BME280;45684;48.358;10.746;2023-03-19T07:46:31;96188.69;;;9.83;100.00
10014;BME280;45684;48.358;10.746;2023-03-19T07:48:59;96189.75;;;9.74;100.00
10014;BME280;45684;48.358;10.746;2023-03-19T07:51:27;96191.19;;;9.71;100.00
10014;BME280;45684;48.358;10.746;2023-03-19T07:53:55;96182.16;;;9.76;100.00
10014;BME280;45684;48.358;10.746;2023-03-19T07:56:23;96181.53;;;9.79;100.00
10014;BME280;45684;48.358;10.746;2023-03-19T07:58:51;96186.69;;;9.89;100.00
10014;BME280;45684;48.358;10.746;2023-03-19T08:01:20;96180.84;;;10.04;100.00
10014;BME280;45684;48.358;10.746;2023-03-19T08:03:48;96182.81;;;10.12;100.00
10014;BME280;45684;48.358;10.746;2023-03-19T08:06:16;96177.41;;;10.21;100.00
10014;BME280;45684;48.358;10.746;2023-03-19T08:08:43;96173.53;;;10.36;100.00
10014;BME280;45684;48.358;10.746;2023-03-19T08:11:11;96173.53;;;10.53;100.00
10014;BME280;45684;48.358;10.746;2023-03-19T08:13:42;96186.31;;;10.70;100.00
10014;BME280;45684;48.358;10.746;2023-03-19T08:16:10;96182.34;;;10.85;100.00
10014;BME280;45684;48.358;10.746;2023-03-19T08:18:40;96188.88;;;10.84;100.00
10014;BME280;45684;48.358;10.746;2023-03-19T08:21:08;96185.41;;;11.01;100.00
10014;BME280;45684;48.358;10.746;2023-03-19T08:23:35;96188.72;;;11.15;100.00
10014;BME280;45684;48.358;10.746;2023-03-19T08:26:03;96188.88;;;11.18;100.00
10014;BME280;45684;48.358;10.746;2023-03-19T08:28:32;96191.91;;;11.26;100.00
10014;BME280;45684;48.358;10.746;2023-03-19T08:31:05;96191.91;;;11.26;100.00
10014;BME280;45684;48.358;10.746;2023-03-19T08:33:33;96186.66;;;11.38;100.00
10014;BME280;45684;48.358;10.746;2023-03-19T08:36:08;96186.78;;;11.50;100.00
10014;BME280;45684;48.358;10.746;2023-03-19T08:38:36;96189.97;;;11.43;100.00
10014;BME280;45684;48.358;10.746;2023-03-19T08:41:05;96204.13;;;11.49;100.00
10014;BME280;45684;48.358;10.746;2023-03-19T08:43:34;96206.00;;;11.74;100.00
10014;BME280;45684;48.358;10.746;2023-03-19T08:46:03;96199.78;;;11.91;100.00
10014;BME280;45684;48.358;10.746;2023-03-19T08:48:31;96208.47;;;12.14;100.00
10014;BME280;45684;48.358;10.746;2023-03-19T08:51:00;96208.72;;;12.30;100.00
10014;BME280;45684;48.358;10.746;2023-03-19T08:53:31;96218.72;;;12.38;100.00
10014;BME280;45684;48.358;10.746;2023-03-19T08:56:01;96224.34;;;12.33;100.00
10014;BME280;45684;48.358;10.746;2023-03-19T08:58:31;96217.53;;;12.57;100.00
10014;BME280;45684;48.358;10.746;2023-03-19T09:01:02;96226.25;;;12.62;100.00
10014;BME280;45684;48.358;10.746;2023-03-19T09:03:34;96224.34;;;12.63;100.00
10014;BME280;45684;48.358;10.746;2023-03-19T09:06:04;96231.28;;;12.51;100.00
10014;BME280;45684;48.358;10.746;2023-03-19T09:08:35;96232.91;;;12.44;100.00
10014;BME280;45684;48.358;10.746;2023-03-19T09:11:04;96237.94;;;12.16;100.00
10014;BME280;45684;48.358;10.746;2023-03-19T09:13:32;96229.22;;;12.48;100.00
10014;BME280;45684;48.358;10.746;2023-03-19T09:16:02;96238.31;;;12.44;100.00
10014;BME280;45684;48.358;10.746;2023-03-19T09:18:30;96239.34;;;12.69;100.00
10014;BME280;45684;48.358;10.746;2023-03-19T09:20:59;96239.34;;;12.90;100.00
10014;BME280;45684;48.358;10.746;2023-03-19T09:23:30;96235.69;;;12.86;100.00
10014;BME280;45684;48.358;10.746;2023-03-19T09:25:59;96238.78;;;13.05;100.00
10014;BME280;45684;48.358;10.746;2023-03-19T09:28:27;96238.25;;;13.12;100.00
10014;BME280;45684;48.358;10.746;2023-03-19T09:30:55;96224.53;;;13.08;100.00
10014;BME280;45684;48.358;10.746;2023-03-19T09:33:23;96235.41;;;13.08;100.00
10014;BME280;45684;48.358;10.746;2023-03-19T09:35:52;96240.44;;;12.97;100.00
10014;BME280;45684;48.358;10.746;2023-03-19T09:38:20;96241.69;;;13.00;100.00
10014;BME280;45684;48.358;10.746;2023-03-19T09:40:54;96236.63;;;12.90;100.00
10014;BME280;45684;48.358;10.746;2023-03-19T09:43:41;96247.16;;;12.91;100.00
10014;BME280;45684;48.358;10.746;2023-03-19T09:46:16;96240.75;;;12.96;100.00
10014;BME280;45684;48.358;10.746;2023-03-19T09:48:51;96240.84;;;13.08;100.00
10014;BME280;45684;48.358;10.746;2023-03-19T09:51:25;96229.34;;;13.32;100.00
10014;BME280;45684;48.358;10.746;2023-03-19T09:53:58;96232.13;;;13.44;100.00
10014;BME280;45684;48.358;10.746;2023-03-19T09:56:27;96236.19;;;13.71;100.00
10014;BME280;45684;48.358;10.746;2023-03-19T09:58:56;96226.63;;;13.86;100.00
10014;BME280;45684;48.358;10.746;2023-03-19T10:01:28;96230.41;;;13.73;100.00
10014;BME280;45684;48.358;10.746;2023-03-19T10:04:15;96231.19;;;13.94;100.00
10014;BME280;45684;48.358;10.746;2023-03-19T10:06:46;96233.03;;;14.15;100.00
10014;BME280;45684;48.358;10.746;2023-03-19T10:09:23;96231.97;;;14.07;100.00
10014;BME280;45684;48.358;10.746;2023-03-19T10:12:07;96239.00;;;14.08;100.00
10014;BME280;45684;48.358;10.746;2023-03-19T10:14:50;96236.00;;;14.34;100.00
10014;BME280;45684;48.358;10.746;2023-03-19T10:17:24;96225.25;;;14.50;100.00
10014;BME280;45684;48.358;10.746;2023-03-19T10:19:58;96226.84;;;14.63;100.00
10014;BME280;45684;48.358;10.746;2023-03-19T10:22:33;96238.09;;;14.62;100.00
10014;BME280;45684;48.358;10.746;2023-03-19T10:25:03;96231.94;;;14.77;100.00
10014;BME280;45684;48.358;10.746;2023-03-19T10:27:32;96226.75;;;14.84;100.00
10014;BME280;45684;48.358;10.746;2023-03-19T10:30:04;96227.72;;;14.92;100.00
10014;BME280;45684;48.358;10.746;2023-03-19T10:32:41;96223.06;;;15.17;100.00
10014;BME280;45684;48.358;10.746;2023-03-19T10:35:17;96222.69;;;15.30;100.00
10014;BME280;45684;48.358;10.746;2023-03-19T10:37:46;96229.75;;;15.47;100.00
10014;BME280;45684;48.358;10.746;2023-03-19T10:40:20;96226.91;;;15.56;100.00
10014;BME280;45684;48.358;10.746;2023-03-19T10:43:03;96221.03;;;15.82;100.00
10014;BME280;45684;48.358;10.746;2023-03-19T10:45:35;96216.94;;;15.48;97.85
10014;BME280;45684;48.358;10.746;2023-03-19T10:48:05;96213.63;;;15.67;97.47
10014;BME280;45684;48.358;10.746;2023-03-19T10:50:45;96215.13;;;15.80;95.48
10014;BME280;45684;48.358;10.746;2023-03-19T10:53:30;96226.03;;;15.80;93.86
10014;BME280;45684;48.358;10.746;2023-03-19T10:56:01;96220.41;;;15.89;93.12
10014;BME280;45684;48.358;10.746;2023-03-19T10:58:32;96215.75;;;15.89;92.52
10014;BME280;45684;48.358;10.746;2023-03-19T11:01:07;96210.34;;;16.05;90.71
10014;BME280;45684;48.358;10.746;2023-03-19T11:03:38;96212.34;;;16.08;89.38
10014;BME280;45684;48.358;10.746;2023-03-19T11:06:15;96207.00;;;16.12;89.22
10014;BME280;45684;48.358;10.746;2023-03-19T11:08:51;96214.31;;;16.23;88.94
10014;BME280;45684;48.358;10.746;2023-03-19T11:11:25;96209.13;;;16.34;87.51
10014;BME280;45684;48.358;10.746;2023-03-19T11:13:54;96202.09;;;16.33;86.10
10014;BME280;45684;48.358;10.746;2023-03-19T11:16:23;96207.78;;;16.44;85.63
10014;BME280;45684;48.358;10.746;2023-03-19T11:18:51;96201.09;;;16.57;85.08
10014;BME280;45684;48.358;10.746;2023-03-19T11:21:26;96202.66;;;16.90;84.70
10014;BME280;45684;48.358;10.746;2023-03-19T11:23:59;96203.28;;;17.18;82.88
10014;BME280;45684;48.358;10.746;2023-03-19T11:26:28;96200.34;;;17.66;77.68
10014;BME280;45684;48.358;10.746;2023-03-19T11:29:01;96200.72;;;17.83;73.64
10014;BME280;45684;48.358;10.746;2023-03-19T11:31:35;96196.53;;;17.90;73.97
10014;BME280;45684;48.358;10.746;2023-03-19T11:34:12;96200.56;;;17.96;72.83
10014;BME280;45684;48.358;10.746;2023-03-19T11:36:54;96191.28;;;18.00;72.82
10014;BME280;45684;48.358;10.746;2023-03-19T11:39:27;96188.53;;;18.00;73.92
10014;BME280;45684;48.358;10.746;2023-03-19T11:42:22;96185.47;;;17.63;64.27
10014;BME280;45684;48.358;10.746;2023-03-19T11:45:01;96175.53;;;17.55;68.18
10014;BME280;45684;48.358;10.746;2023-03-19T11:47:43;96175.59;;;17.58;71.32
10014;BME280;45684;48.358;10.746;2023-03-19T11:50:21;96181.13;;;17.43;73.07
10014;BME280;45684;48.358;10.746;2023-03-19T11:53:01;96169.09;;;17.67;74.83
10014;BME280;45684;48.358;10.746;2023-03-19T11:55:36;96167.09;;;17.83;73.51
10014;BME280;45684;48.358;10.746;2023-03-19T11:58:52;96162.75;;;18.01;71.84
10014;BME280;45684;48.358;10.746;2023-03-19T12:01:33;96160.56;;;18.10;69.84
10014;BME280;45684;48.358;10.746;2023-03-19T12:04:29;96151.31;;;18.19;72.68
10014;BME280;45684;48.358;10.746;2023-03-19T12:07:13;96155.22;;;18.44;73.83
10014;BME280;45684;48.358;10.746;2023-03-19T12:09:50;96149.97;;;18.58;70.32
10014;BME280;45684;48.358;10.746;2023-03-19T12:12:26;96156.75;;;18.91;68.51
10014;BME280;45684;48.358;10.746;2023-03-19T12:15:04;96151.06;;;19.07;68.01
10014;BME280;45684;48.358;10.746;2023-03-19T12:17:45;96159.22;;;19.00;69.80
10014;BME280;45684;48.358;10.746;2023-03-19T12:20:28;96148.47;;;18.88;70.45
10014;BME280;45684;48.358;10.746;2023-03-19T12:23:05;96141.69;;;18.55;67.02
10014;BME280;45684;48.358;10.746;2023-03-19T12:25:44;96146.97;;;18.41;67.16
10014;BME280;45684;48.358;10.746;2023-03-19T12:28:23;96145.81;;;18.68;64.68
10014;BME280;45684;48.358;10.746;2023-03-19T12:31:03;96144.41;;;18.78;61.91
10014;BME280;45684;48.358;10.746;2023-03-19T12:33:42;96140.75;;;18.97;62.38
10014;BME280;45684;48.358;10.746;2023-03-19T12:36:19;96133.41;;;19.34;63.05
10014;BME280;45684;48.358;10.746;2023-03-19T12:38:52;96131.91;;;19.74;57.66
10014;BME280;45684;48.358;10.746;2023-03-19T12:41:24;96124.91;;;19.80;52.42
10014;BME280;45684;48.358;10.746;2023-03-19T12:43:56;96114.91;;;19.99;52.21
10014;BME280;45684;48.358;10.746;2023-03-19T12:46:28;96109.88;;;20.08;51.45
10014;BME280;45684;48.358;10.746;2023-03-19T12:49:04;96117.38;;;19.36;47.85
10014;BME280;45684;48.358;10.746;2023-03-19T12:51:37;96110.06;;;19.14;49.91
10014;BME280;45684;48.358;10.746;2023-03-19T12:54:17;96103.31;;;19.42;50.19
10014;BME280;45684;48.358;10.746;2023-03-19T12:56:53;96107.91;;;19.64;49.60
10014;BME280;45684;48.358;10.746;2023-03-19T12:59:28;96100.44;;;19.27;48.56
10014;BME280;45684;48.358;10.746;2023-03-19T13:02:06;96103.78;;;18.83;49.11
10014;BME280;45684;48.358;10.746;2023-03-19T13:04:44;96094.69;;;19.06;48.99
10014;BME280;45684;48.358;10.746;2023-03-19T13:07:19;96094.31;;;19.41;49.14
10014;BME280;45684;48.358;10.746;2023-03-19T13:09:52;96092.41;;;18.81;49.52
10014;BME280;45684;48.358;10.746;2023-03-19T13:12:26;96092.75;;;18.76;48.54
10014;BME280;45684;48.358;10.746;2023-03-19T13:14:59;96091.19;;;19.09;49.04